Date,TemperatureHighF,TemperatureAvgF,TemperatureLowF,DewpointHighF,DewpointAvgF,DewpointLowF,HumidityHigh,HumidityAvg,HumidityLow,PressureMaxIn,PressureMinIn,WindSpeedMaxMPH,WindSpeedAvgMPH,GustSpeedMaxMPH,PrecipitationSumIn
2013-1-1,56.4,41.7,34.7,39.0,34.4,31.0,98,78,44,30.30,30.21,2,0,5,0.00
2013-1-2,54.7,40.1,31.6,39.0,33.7,30.0,96,80,48,30.26,30.16,3,0,5,0.00
2013-1-3,54.5,40.9,31.6,42.0,35.5,31.0,98,83,51,30.29,30.19,2,0,3,0.00
2013-1-4,58.7,43.3,33.8,43.0,38.0,33.0,97,83,53,30.31,30.20,5,0,6,0.00
2013-1-5,46.5,42.0,35.3,45.0,40.6,34.0,98,94,87,30.27,30.07,3,0,5,0.39
2013-1-6,52.8,46.2,40.0,47.0,43.5,39.0,99,91,78,30.21,30.15,2,0,4,0.03
2013-1-7,60.3,47.1,38.6,52.0,44.6,38.0,99,92,72,30.27,30.17,2,0,4,0.00
2013-1-8,61.2,47.3,40.7,53.0,45.6,40.0,99,94,74,30.26,30.14,2,0,5,0.00
2013-1-9,50.1,44.2,39.5,49.0,41.5,34.0,99,90,74,30.17,30.00,8,1,17,0.01
2013-1-10,51.7,41.5,32.9,36.0,33.0,31.0,94,73,48,30.23,30.09,9,2,13,0.00
2013-1-11,53.7,42.5,34.2,41.0,34.8,30.0,87,75,57,30.27,30.13,10,1,13,0.00
2013-1-12,51.2,38.9,31.3,36.0,32.0,30.0,96,78,45,30.27,30.15,3,0,7,0.00
2013-1-13,52.3,37.5,28.5,36.0,30.4,21.0,96,78,36,30.29,30.20,4,0,5,0.00
2013-1-14,56.8,40.7,30.8,35.0,27.0,16.0,93,61,35,30.41,30.26,6,0,6,0.00
2013-1-15,53.5,39.9,31.2,38.0,34.2,30.0,96,82,51,30.50,30.41,3,0,6,0.00
2013-1-16,58.4,41.4,30.6,41.0,35.0,29.0,97,80,49,30.46,30.29,2,0,5,0.00
2013-1-17,59.8,43.2,32.2,42.0,37.1,31.0,98,81,46,30.29,30.17,2,0,4,0.00
2013-1-18,61.2,44.3,33.5,46.0,37.3,33.0,98,79,47,30.25,30.16,3,0,3,0.00
2013-1-19,63.5,45.6,32.5,44.0,36.7,31.0,94,73,41,30.28,30.18,2,0,4,0.00
2013-1-20,62.7,45.8,34.4,41.0,36.0,31.0,93,71,40,30.25,30.14,2,0,4,0.00
2013-1-21,62.1,45.6,33.5,45.0,37.6,32.0,93,75,43,30.20,30.10,3,0,3,0.00
2013-1-22,60.2,47.2,35.1,44.0,38.6,33.0,93,74,49,30.13,30.00,1,0,4,0.00
2013-1-23,49.7,48.1,46.9,48.0,46.4,42.0,98,94,82,30.10,29.99,3,0,4,0.45
2013-1-24,60.9,51.6,47.3,55.0,50.1,47.0,99,94,79,30.20,30.08,3,0,5,0.00
2013-1-25,62.5,53.6,48.8,56.0,51.6,48.0,100,93,75,30.21,30.06,2,0,6,0.00
2013-1-26,57.7,48.7,39.8,49.0,42.8,37.0,99,81,54,30.09,29.99,7,1,12,0.01
2013-1-27,59.2,45.8,35.2,39.0,35.1,32.0,91,69,36,30.20,30.08,6,1,14,0.00
2013-1-28,58.2,48.3,38.6,40.0,38.1,35.0,90,69,48,30.31,30.18,7,2,13,0.00
2013-1-29,64.0,48.8,39.7,47.0,40.4,36.0,89,74,45,30.37,30.29,3,0,7,0.00
2013-1-30,68.0,50.3,40.7,49.0,42.2,39.0,95,76,50,30.35,30.27,7,1,8,0.00
2013-1-31,66.9,50.0,39.0,49.0,43.2,38.0,97,80,48,30.31,30.20,3,0,7,0.00
2013-2-1,67.5,50.2,38.9,50.0,43.7,38.0,97,80,48,30.23,30.13,6,0,6,0.00
2013-2-2,63.0,47.8,41.2,52.0,44.5,40.0,98,89,63,30.32,30.23,5,0,8,0.00
2013-2-3,63.3,48.9,40.7,50.0,45.1,40.0,98,88,60,30.27,30.15,5,0,8,0.00
2013-2-4,55.3,44.3,37.5,50.0,42.8,37.0,98,94,80,30.19,30.09,5,1,8,0.00
2013-2-5,59.9,50.8,43.9,50.0,45.6,40.0,98,83,68,30.17,30.07,8,2,16,0.02
2013-2-6,60.0,45.8,36.5,46.0,40.2,36.0,98,82,58,30.22,30.12,4,1,11,0.00
2013-2-7,54.8,45.8,37.7,47.0,41.1,35.0,98,85,50,30.17,30.00,9,1,14,0.23
2013-2-8,58.8,44.2,32.9,43.0,36.7,32.0,98,78,44,30.04,29.96,6,1,10,0.00
2013-2-9,61.3,44.3,32.9,38.0,30.9,24.0,92,63,29,30.11,30.03,7,1,11,0.00
2013-2-10,63.7,45.1,32.5,47.0,35.6,30.0,94,71,36,30.13,30.03,7,1,9,0.00
2013-2-11,67.0,51.1,40.3,42.0,35.6,30.0,96,59,31,30.24,30.10,5,1,10,0.00
2013-2-12,62.7,46.7,36.0,47.0,39.9,35.0,98,79,49,30.38,30.24,7,1,8,0.00
2013-2-13,66.6,47.7,35.2,48.0,41.9,34.0,98,83,49,30.36,30.22,6,1,10,0.00
2013-2-14,70.2,51.6,39.8,53.0,44.5,39.0,98,79,49,30.26,30.17,7,1,9,0.00
2013-2-15,72.0,53.8,40.9,48.0,42.8,39.0,94,70,39,30.29,30.22,2,0,5,0.00
2013-2-16,71.9,52.5,41.4,51.0,44.0,40.0,95,76,38,30.25,30.06,5,0,9,0.00
2013-2-17,64.5,47.7,35.6,47.0,40.3,35.0,98,79,39,30.07,29.98,9,1,11,0.00
2013-2-18,52.8,43.7,38.4,45.0,40.4,36.0,98,88,69,30.03,29.93,6,1,13,0.00
2013-2-19,51.6,42.1,34.8,42.0,36.7,32.0,97,82,54,29.98,29.75,11,2,15,0.19
2013-2-20,62.0,45.3,32.0,40.0,34.1,30.0,92,68,32,30.08,29.87,8,2,10,0.00
2013-2-21,63.8,48.4,37.3,39.0,35.8,32.0,87,64,35,30.18,30.07,5,1,11,0.00
2013-2-22,64.5,49.4,37.1,47.0,40.5,35.0,93,73,45,30.27,30.17,5,1,11,0.00
2013-2-23,62.1,49.8,40.0,45.0,35.9,30.0,92,62,31,30.28,30.18,7,2,11,0.00
2013-2-24,69.4,48.7,34.4,40.0,33.3,25.0,89,61,20,30.28,30.16,6,0,10,0.00
2013-2-25,71.9,50.5,37.6,45.0,35.9,17.0,94,66,14,30.28,30.16,6,1,16,0.00
2013-2-26,70.2,50.0,36.4,39.0,34.9,30.0,83,61,28,30.23,30.15,4,1,8,0.00
2013-2-27,69.6,53.0,37.7,46.0,38.9,31.0,81,61,38,30.37,30.22,6,1,11,0.00
2013-2-28,71.5,56.6,46.5,55.0,49.6,45.0,97,79,55,30.45,30.37,6,1,9,0.00
2013-3-1,74.4,56.2,44.3,55.0,48.5,44.0,98,78,45,30.44,30.25,6,1,11,0.00
2013-3-2,69.6,55.3,46.9,55.0,49.2,45.0,95,81,56,30.26,30.07,7,1,11,0.00
2013-3-3,67.9,53.5,44.1,52.0,46.8,43.0,97,81,48,30.09,30.02,8,2,11,0.00
2013-3-4,57.1,46.0,37.5,49.0,43.0,36.0,97,90,69,30.16,30.07,7,1,10,0.00
2013-3-5,54.2,44.9,36.2,48.0,42.2,35.0,98,91,72,30.08,29.78,13,2,27,0.42
2013-3-6,54.4,47.0,39.6,48.0,42.7,38.0,97,86,62,30.07,29.79,14,3,24,0.35
2013-3-7,53.2,44.7,36.9,45.0,40.0,36.0,98,85,60,30.01,29.89,4,0,6,0.00
2013-3-8,61.4,47.9,36.1,46.0,40.2,35.0,97,77,48,30.05,29.86,10,1,11,0.00
2013-3-9,69.5,51.7,36.9,49.0,41.0,35.0,94,70,38,30.33,30.05,5,1,10,0.00
2013-3-10,72.4,52.4,38.9,50.0,40.7,31.0,94,70,24,30.36,30.25,5,1,12,0.00
2013-3-11,70.4,51.7,39.1,53.0,44.7,38.0,98,80,38,30.28,30.11,7,1,11,0.00
2013-3-12,73.4,54.0,41.1,57.0,47.3,40.0,98,81,43,30.17,30.09,8,1,9,0.00
2013-3-13,79.4,57.5,42.1,59.0,49.3,41.0,98,77,35,30.18,30.07,6,1,8,0.00
2013-3-14,72.4,56.2,46.1,58.0,48.3,44.0,98,78,38,30.18,30.09,4,0,7,0.00
2013-3-15,75.7,56.7,45.0,57.0,47.6,43.0,93,74,44,30.14,30.04,6,1,9,0.00
2013-3-16,76.6,58.0,43.4,54.0,43.8,34.0,97,66,22,30.14,30.03,7,1,14,0.00
2013-3-17,68.2,55.6,41.6,47.0,41.9,36.0,89,62,38,30.15,30.04,7,1,13,0.00
2013-3-18,67.1,51.8,41.4,51.0,44.5,40.0,95,78,51,30.13,30.03,4,1,8,0.00
2013-3-19,59.9,50.4,44.0,50.0,44.1,40.0,95,80,61,30.14,30.06,2,0,8,0.07
2013-3-20,59.4,49.8,44.7,56.0,48.4,43.0,98,95,85,30.15,30.07,5,0,8,0.56
2013-3-21,66.1,51.1,37.6,48.0,42.3,37.0,97,74,45,30.15,30.02,6,1,9,0.00
2013-3-22,69.3,51.5,38.4,41.0,36.8,28.0,91,63,22,30.15,30.05,3,0,8,0.00
2013-3-23,66.9,48.9,38.5,43.0,37.2,-99.9,91,69,36,30.15,30.05,4,-12,10,0.00
2013-3-24,68.3,53.1,40.7,51.0,44.2,39.0,94,75,45,30.10,29.97,6,1,9,0.00
2013-3-25,60.6,47.4,40.4,50.0,43.3,40.0,98,87,60,30.04,29.95,6,1,11,0.00
2013-3-26,65.0,50.5,40.7,50.0,44.6,40.0,98,82,50,30.02,29.95,7,1,11,0.00
2013-3-27,59.1,50.5,44.5,53.0,48.0,43.0,96,91,74,30.03,29.96,7,1,11,0.00
2013-3-28,61.7,52.3,48.3,57.0,50.6,47.0,97,94,82,30.10,30.02,4,0,6,0.08
2013-3-29,74.9,57.1,46.0,58.0,51.2,45.0,98,83,51,30.11,30.03,6,1,10,0.00
2013-3-30,67.5,54.5,49.4,57.0,50.8,47.0,97,88,65,30.09,30.02,9,1,13,0.09
2013-3-31,58.3,54.1,50.3,57.0,52.9,49.0,98,95,89,30.08,30.02,10,1,14,0.55
2013-4-1,64.7,54.5,47.3,56.0,51.5,46.0,98,90,69,30.17,30.06,6,1,10,0.30
2013-4-2,67.8,51.8,45.0,57.0,48.7,44.0,98,90,66,30.20,30.10,7,1,12,0.00
2013-4-3,73.1,53.5,45.6,59.0,49.6,45.0,100,88,58,30.15,30.00,8,1,10,0.00
2013-4-4,55.9,52.0,47.8,55.0,51.4,47.0,100,98,96,30.13,30.00,8,2,14,1.02
2013-4-5,62.4,54.7,49.0,55.0,52.0,49.0,99,91,72,30.20,30.13,8,1,12,0.03
2013-4-6,65.4,55.4,50.8,59.0,52.1,49.0,98,89,60,30.21,30.13,7,1,13,0.03
2013-4-7,62.2,53.7,47.2,57.0,49.9,45.0,98,88,68,30.17,29.84,10,2,21,0.14
2013-4-8,70.8,55.2,44.8,45.0,38.4,34.0,89,57,29,30.07,29.82,14,3,23,0.00
2013-4-9,81.6,61.9,43.2,48.0,41.6,38.0,86,53,22,30.14,30.06,2,0,8,0.00
2013-4-10,87.9,66.6,50.8,60.0,49.3,44.0,83,57,23,30.19,30.04,8,1,17,0.00
2013-4-11,80.1,62.5,47.3,52.0,47.4,43.0,86,60,34,30.08,29.84,9,1,12,0.00
2013-4-12,76.3,56.2,44.3,56.0,47.8,42.0,94,76,31,29.93,29.82,6,1,11,0.00
2013-4-13,73.9,59.6,44.7,54.0,44.5,35.0,97,61,30,29.91,29.81,7,2,11,0.00
2013-4-14,72.3,54.6,43.3,48.0,39.7,29.0,89,60,29,29.94,29.86,9,1,20,0.00
2013-4-15,61.1,50.8,42.6,43.0,36.5,29.0,91,61,35,29.99,29.87,15,3,18,0.00
2013-4-16,73.0,54.0,37.6,40.0,34.2,29.0,82,52,21,30.20,29.99,4,1,9,0.00
2013-4-17,73.8,56.7,41.3,43.0,37.4,30.0,78,53,22,30.30,30.19,5,0,9,0.00
2013-4-18,75.9,59.3,44.2,48.0,42.2,38.0,86,58,26,30.28,30.18,6,1,11,0.00
2013-4-19,82.5,62.5,47.5,59.0,47.9,44.0,89,63,27,30.24,30.08,9,1,18,0.00
2013-4-20,80.1,63.1,48.6,51.0,45.0,41.0,90,56,25,30.12,29.97,7,1,13,0.00
2013-4-21,84.2,64.5,48.1,57.0,49.6,43.0,90,63,27,30.04,29.92,6,1,10,0.00
2013-4-22,90.1,68.7,53.3,56.0,48.4,39.0,79,53,17,29.97,29.85,7,0,10,0.00
2013-4-23,83.5,63.7,45.2,51.0,37.6,23.0,94,43,15,29.94,29.86,9,1,13,0.00
2013-4-24,57.9,49.4,43.0,50.0,45.6,42.0,97,87,74,29.97,29.85,13,2,17,0.00
2013-4-25,63.5,53.3,46.0,51.0,47.6,44.0,93,82,61,30.14,29.98,9,1,13,0.00
2013-4-26,69.0,52.8,43.8,55.0,47.8,43.0,97,85,53,30.25,30.14,5,1,9,0.00
2013-4-27,69.9,54.0,46.1,57.0,49.3,45.0,97,85,60,30.24,30.08,8,1,10,0.00
2013-4-28,85.2,62.3,43.1,61.0,51.1,42.0,98,72,33,30.08,29.88,7,1,9,0.00
2013-4-29,88.6,70.6,54.4,62.0,52.4,44.0,83,56,31,29.91,29.77,7,1,11,0.00
2013-4-30,91.4,68.8,50.8,49.0,44.0,34.0,84,48,15,29.88,29.79,2,0,5,0.00
2013-5-1,89.9,68.9,55.5,49.0,33.0,21.0,52,30,9,30.09,29.88,6,1,9,0.00
2013-5-2,90.4,67.9,49.3,49.0,36.2,20.0,70,37,10,30.16,30.08,6,1,8,0.00
2013-5-3,90.4,67.9,52.1,54.0,41.5,32.0,70,41,19,30.08,29.80,6,1,10,0.00
2013-5-4,88.7,63.6,52.3,54.0,46.6,39.0,91,59,21,29.80,29.58,10,2,20,0.00
2013-5-5,62.5,56.4,53.2,53.0,50.0,49.0,87,79,68,29.84,29.64,7,2,18,0.00
2013-5-6,67.1,58.3,50.0,54.0,50.9,48.0,95,77,54,29.99,29.83,7,1,13,0.00
2013-5-7,70.6,58.9,50.2,56.0,51.5,48.0,96,78,48,30.05,29.98,9,1,13,0.00
2013-5-8,67.1,53.9,48.8,56.0,50.1,47.0,96,87,66,30.15,30.04,5,1,10,0.00
2013-5-9,70.7,55.9,46.4,56.0,50.0,45.0,97,82,57,30.17,30.08,5,1,9,0.00
2013-5-10,73.9,57.1,47.9,59.0,51.5,46.0,97,83,55,30.19,30.10,9,1,13,0.00
2013-5-11,80.0,59.6,45.3,62.0,52.2,44.0,98,79,50,30.16,30.06,9,2,10,0.00
2013-5-12,84.2,61.9,44.5,62.0,50.6,42.0,98,72,27,30.15,30.02,6,1,12,0.00
2013-5-13,85.5,63.5,43.4,64.0,52.4,42.0,98,71,39,30.09,29.94,6,1,9,0.00
2013-5-14,89.0,66.0,50.0,59.0,51.5,47.0,91,64,24,29.98,29.88,4,0,7,0.00
2013-5-15,79.6,59.4,43.9,53.0,47.6,43.0,97,69,38,30.03,29.97,5,1,11,0.00
2013-5-16,70.0,60.0,52.2,55.0,49.6,46.0,79,69,50,30.02,29.93,7,2,20,0.00
2013-5-17,71.5,56.4,43.7,52.0,45.6,42.0,95,70,44,30.07,29.97,6,1,12,0.00
2013-5-18,79.4,61.6,43.2,53.0,47.3,42.0,96,64,35,30.13,30.07,7,1,13,0.00
2013-5-19,85.8,65.4,48.5,50.0,45.5,40.0,87,55,20,30.14,29.98,7,1,11,0.00
2013-5-20,90.1,67.9,49.4,57.0,47.8,40.0,88,54,19,30.01,29.89,7,1,12,0.00
2013-5-21,73.9,58.1,47.2,49.0,44.6,33.0,95,65,27,30.01,29.90,8,1,13,0.00
2013-5-22,69.5,56.1,46.0,44.0,35.1,29.0,66,47,23,30.05,29.91,8,2,13,0.00
2013-5-23,73.8,57.8,43.2,47.0,41.3,37.0,80,57,32,30.01,29.92,6,1,11,0.00
2013-5-24,74.1,57.9,41.9,49.0,43.5,39.0,90,62,35,30.00,29.91,5,0,8,0.00
2013-5-25,76.3,58.0,42.4,50.0,45.5,40.0,93,67,37,30.04,29.95,5,1,9,0.00
2013-5-26,71.0,59.6,49.9,54.0,49.4,45.0,94,71,50,30.12,30.04,6,2,18,0.00
2013-5-27,61.7,55.2,48.7,56.0,51.1,44.0,96,86,75,30.12,30.00,6,1,10,0.11
2013-5-28,72.1,60.6,54.0,59.0,54.1,50.0,98,81,57,30.01,29.92,6,1,12,0.04
2013-5-29,74.7,63.0,52.4,56.0,52.0,46.0,88,69,49,29.97,29.89,7,1,12,0.00
2013-5-30,81.1,63.4,45.1,53.0,46.1,41.0,92,58,30,30.00,29.93,6,1,10,0.00
2013-5-31,91.7,68.9,49.0,58.0,49.6,42.0,86,56,23,30.02,29.91,6,1,10,0.00
2013-6-1,94.9,72.5,55.4,64.0,52.5,46.0,80,53,26,29.93,29.77,4,1,8,0.00
2013-6-2,86.4,67.3,53.1,59.0,51.3,46.0,84,59,33,29.78,29.64,5,1,10,0.00
2013-6-3,63.6,55.6,49.5,53.0,50.2,47.0,94,82,67,29.90,29.70,13,2,16,0.00
2013-6-4,62.3,54.5,51.5,53.0,50.8,49.0,93,87,72,29.99,29.88,7,2,12,0.00
2013-6-5,69.0,56.8,50.2,55.0,51.1,48.0,94,82,61,30.01,29.93,7,2,14,0.00
2013-6-6,71.4,56.8,49.9,57.0,51.4,48.0,95,83,59,29.97,29.85,8,2,11,0.00
2013-6-7,87.3,64.9,48.8,64.0,55.6,48.0,97,76,40,29.89,29.72,5,1,10,0.00
2013-6-8,85.0,64.6,53.3,64.0,56.8,51.0,96,78,47,29.85,29.71,8,2,14,0.00
2013-6-9,61.6,56.6,53.8,55.0,53.5,52.0,95,89,78,29.91,29.84,7,2,12,0.00
2013-6-10,60.4,56.2,54.0,55.0,53.7,52.0,97,91,80,29.98,29.81,5,1,9,0.05
2013-6-11,78.1,63.4,53.7,60.0,54.4,51.0,92,75,45,30.00,29.88,6,1,10,0.00
2013-6-12,83.4,63.8,46.1,55.0,46.6,36.0,96,61,24,29.99,29.90,8,1,13,0.00
2013-6-13,84.2,64.8,46.5,53.0,45.0,40.0,81,53,26,30.09,29.99,6,1,14,0.00
2013-6-14,84.3,65.6,50.6,54.0,49.1,46.0,85,60,28,30.00,29.81,7,1,10,0.00
2013-6-15,77.2,60.9,46.1,56.0,50.7,45.0,97,72,44,29.98,29.83,7,1,12,0.00
2013-6-16,87.3,64.4,45.7,58.0,49.4,44.0,97,64,30,30.06,29.98,8,1,12,0.00
2013-6-17,76.0,61.9,48.8,57.0,49.9,-99.9,91,69,47,30.08,30.00,9,1,13,0.00
2013-6-18,71.5,60.0,50.3,52.0,49.1,46.0,91,69,43,30.02,29.95,7,2,13,0.00
2013-6-19,76.3,62.8,49.5,51.0,47.7,45.0,85,60,36,30.06,29.99,6,2,11,0.00
2013-6-20,80.2,64.1,47.5,55.0,47.2,44.0,89,58,33,30.02,29.92,6,1,11,0.00
2013-6-21,85.9,66.4,48.3,54.0,48.4,44.0,87,58,26,29.98,29.88,6,1,8,0.00
2013-6-22,90.6,70.7,52.3,56.0,49.5,46.0,81,51,24,29.93,29.81,6,1,11,0.00
2013-6-23,68.6,61.4,56.0,61.0,55.8,51.0,93,82,68,29.86,29.81,8,2,11,0.00
2013-6-24,60.2,57.4,54.9,58.0,55.4,53.0,97,93,87,29.90,29.80,6,1,8,0.16
2013-6-25,63.0,59.9,57.4,62.0,59.2,57.0,98,97,96,29.99,29.88,10,1,11,1.43
2013-6-26,78.6,66.2,59.3,68.0,62.2,59.0,98,88,63,30.07,29.98,7,1,8,0.04
2013-6-27,87.4,69.1,55.0,70.0,61.6,54.0,99,80,44,30.10,30.00,4,0,7,0.00
2013-6-28,96.6,75.9,60.6,73.0,63.2,54.0,97,69,27,30.03,29.88,5,1,10,0.00
2013-6-29,98.1,78.5,61.2,70.0,61.9,56.0,86,60,30,29.92,29.78,5,1,8,0.00
2013-6-30,91.9,73.5,58.9,70.0,62.4,57.0,95,71,41,29.84,29.74,5,1,7,0.00
2013-7-1,90.9,71.5,56.6,69.0,61.9,55.0,97,75,45,29.85,29.79,6,1,9,0.00
2013-7-2,86.5,67.5,55.9,66.0,59.6,54.0,95,78,48,29.94,29.82,9,2,22,0.00
2013-7-3,83.5,66.6,55.8,65.0,58.2,54.0,97,77,50,29.93,29.78,8,2,12,0.00
2013-7-4,94.4,75.6,61.5,71.0,58.3,42.0,87,60,21,29.82,29.68,9,2,15,0.00
2013-7-5,80.8,66.1,52.5,60.0,53.2,44.0,90,65,39,29.75,29.68,5,1,10,0.00
2013-7-6,71.0,56.8,51.0,59.0,52.3,50.0,96,86,63,29.81,29.75,8,2,10,0.00
2013-7-7,72.9,58.7,50.6,60.0,53.3,49.0,96,84,60,29.88,29.80,8,2,11,0.00
2013-7-8,74.4,57.5,50.6,61.0,53.2,49.0,97,87,57,29.99,29.88,5,1,9,0.00
2013-7-9,87.7,64.7,49.5,63.0,54.7,48.0,100,74,37,30.05,29.94,7,1,9,0.00
2013-7-10,72.3,57.3,47.8,59.0,51.4,47.0,97,82,55,30.00,29.91,8,2,14,0.00
2013-7-11,71.0,54.9,49.0,58.0,51.2,48.0,97,88,62,29.97,29.88,8,2,13,0.01
2013-7-12,72.5,58.0,50.8,59.0,52.6,49.0,96,84,60,29.96,29.87,9,2,11,0.00
2013-7-13,77.1,59.8,47.6,60.0,52.8,46.0,98,80,52,29.97,29.91,6,2,11,0.00
2013-7-14,71.0,57.7,50.5,58.0,52.4,49.0,97,84,61,30.02,29.90,7,2,15,0.00
2013-7-15,66.1,54.3,48.6,55.0,50.8,47.0,96,88,67,29.94,29.86,8,2,14,0.00
2013-7-16,65.2,56.3,51.9,58.0,53.2,50.0,96,89,75,30.04,29.89,7,1,10,0.01
2013-7-17,76.6,59.6,49.4,62.0,54.4,48.0,98,85,59,30.11,30.03,6,1,11,0.00
2013-7-18,75.8,60.2,51.5,61.0,54.6,50.0,97,84,58,30.07,29.94,7,2,12,0.00
2013-7-19,79.9,61.1,49.7,63.0,54.3,49.0,98,80,53,29.96,29.82,9,1,12,0.00
2013-7-20,77.5,57.6,47.4,61.0,52.2,46.0,97,84,56,29.86,29.73,8,2,13,0.00
2013-7-21,75.6,59.4,51.2,60.0,52.7,50.0,96,81,50,29.91,29.78,8,2,14,0.00
2013-7-22,82.3,61.7,52.2,63.0,55.3,50.0,95,82,47,29.98,29.91,9,1,15,0.00
2013-7-23,73.1,63.6,56.3,60.0,56.8,54.0,92,79,62,30.02,29.95,7,1,10,0.00
2013-7-24,80.2,63.4,51.9,62.0,55.4,51.0,97,77,50,30.00,29.91,7,2,13,0.00
2013-7-25,73.0,59.2,50.3,59.0,53.4,49.0,96,82,58,30.04,29.93,7,3,14,0.00
2013-7-26,71.3,57.4,50.4,60.0,53.0,49.0,97,86,63,30.11,30.02,10,2,15,0.00
2013-7-27,70.3,57.2,51.3,58.0,52.8,50.0,96,87,64,30.05,29.88,7,2,12,0.00
2013-7-28,65.8,55.0,50.7,57.0,52.2,50.0,97,90,70,29.90,29.82,8,2,15,0.00
2013-7-29,67.0,55.8,52.0,57.0,52.5,50.0,95,89,69,30.04,29.85,6,2,14,0.00
2013-7-30,67.3,56.2,51.2,59.0,52.9,50.0,97,89,68,30.13,30.04,9,2,12,0.01
2013-7-31,81.2,60.8,51.5,61.0,54.3,51.0,97,82,41,30.10,29.97,8,1,12,0.01
2013-8-1,81.9,63.8,47.0,60.0,54.1,46.0,98,74,42,30.05,29.94,5,0,8,0.00
2013-8-2,83.4,63.3,47.9,59.0,52.3,47.0,98,72,35,29.98,29.87,6,1,12,0.00
2013-8-3,73.6,56.9,47.8,59.0,51.6,46.0,97,84,59,29.98,29.92,9,2,12,0.00
2013-8-4,73.0,56.6,50.3,58.0,52.1,49.0,97,86,57,30.02,29.96,7,1,10,0.00
2013-8-5,66.9,55.1,49.4,57.0,51.3,48.0,96,87,67,30.04,29.95,7,1,11,0.00
2013-8-6,71.2,58.2,50.9,58.0,52.7,49.0,95,83,61,30.06,30.00,6,1,14,0.00
2013-8-7,66.7,58.9,53.8,58.0,54.9,52.0,96,87,71,30.11,30.05,7,1,9,0.00
2013-8-8,70.4,59.1,51.5,60.0,54.3,50.0,97,85,63,30.05,29.95,7,1,12,0.00
2013-8-9,71.2,57.6,51.0,59.0,53.4,49.0,97,87,62,30.00,29.93,6,1,14,0.01
2013-8-10,74.6,60.8,53.4,61.0,55.3,52.0,95,84,58,30.06,30.00,7,1,12,0.00
2013-8-11,77.7,60.2,52.1,62.0,54.9,51.0,98,84,53,30.04,29.93,6,1,10,0.01
2013-8-12,75.5,58.9,50.4,62.0,54.0,49.0,97,85,57,30.01,29.94,7,1,16,0.00
2013-8-13,86.5,64.3,49.7,62.0,55.2,48.0,98,76,40,30.01,29.89,6,1,9,0.00
2013-8-14,93.7,66.8,49.0,61.0,55.2,48.0,97,72,28,29.98,29.87,6,1,8,0.00
2013-8-15,85.7,67.0,55.1,66.0,60.2,54.0,98,81,51,29.96,29.91,6,1,11,0.00
2013-8-16,89.7,67.8,54.4,67.0,58.1,53.0,98,76,36,29.99,29.93,7,1,11,0.00
2013-8-17,92.9,68.9,52.9,66.0,58.3,52.0,98,74,33,29.99,29.84,6,0,8,0.00
2013-8-18,92.2,70.9,54.7,66.0,59.0,53.0,97,70,33,29.89,29.77,7,1,10,0.00
2013-8-19,83.6,67.7,56.3,64.0,58.7,54.0,94,75,45,29.91,29.80,8,2,14,0.00
2013-8-20,77.6,62.0,56.2,62.0,57.6,54.0,96,87,56,29.93,29.85,9,2,13,0.00
2013-8-21,74.3,60.9,52.3,60.0,55.1,50.0,95,83,56,29.97,29.89,8,2,12,0.00
2013-8-22,74.2,59.7,52.1,60.0,54.3,50.0,97,84,55,29.99,29.91,6,1,13,0.00
2013-8-23,77.1,61.9,51.6,61.0,55.8,50.0,97,82,55,29.94,29.80,8,1,12,0.00
2013-8-24,80.6,63.9,49.6,61.0,55.9,49.0,100,78,49,29.89,29.83,8,1,14,0.00
2013-8-25,76.7,64.6,56.4,64.0,59.5,55.0,97,84,64,29.95,29.88,7,1,12,0.00
2013-8-26,83.3,65.7,54.5,63.0,56.7,53.0,97,76,43,30.03,29.90,5,0,10,0.00
2013-8-27,87.4,65.3,51.6,61.0,55.2,50.0,97,74,36,29.91,29.82,5,0,14,0.00
2013-8-28,82.9,64.6,51.6,66.0,58.1,51.0,98,81,53,29.95,29.86,7,1,11,0.00
2013-8-29,86.5,67.8,57.1,67.0,60.4,56.0,98,80,47,30.06,29.95,5,1,11,0.00
2013-8-30,94.6,71.3,56.8,67.0,60.0,56.0,98,73,32,30.04,29.90,3,0,10,0.00
2013-8-31,86.7,66.5,53.9,64.0,55.5,52.0,96,73,35,29.97,29.88,5,1,10,0.00
2013-9-1,80.5,64.0,52.4,62.0,56.4,51.0,97,79,46,29.95,29.87,7,1,12,0.00
2013-9-2,82.4,66.2,56.3,65.0,59.3,55.0,98,80,51,29.96,29.88,6,1,10,0.00
2013-9-3,79.4,63.6,51.9,59.0,55.1,50.0,97,77,43,30.00,29.91,7,1,11,0.00
2013-9-4,80.9,64.6,52.3,61.0,55.9,51.0,98,77,46,30.04,29.92,3,0,10,0.00
2013-9-5,84.6,66.2,52.3,59.0,54.8,51.0,97,71,42,30.00,29.94,7,1,11,0.00
2013-9-6,94.9,69.3,53.5,58.0,52.3,47.0,93,62,20,29.99,29.84,7,0,9,0.00
2013-9-7,95.1,72.0,55.3,59.0,52.5,47.0,86,56,22,29.88,29.81,6,1,10,0.00
2013-9-8,90.4,66.1,50.3,62.0,54.8,49.0,96,71,32,29.88,29.76,7,1,8,0.00
2013-9-9,90.6,65.2,49.8,63.0,54.7,48.0,95,73,36,29.82,29.70,5,1,9,0.00
2013-9-10,68.4,59.5,54.6,61.0,57.4,53.0,98,93,76,29.92,29.74,5,1,12,0.01
2013-9-11,66.8,61.8,59.6,61.0,59.5,59.0,98,92,81,30.02,29.92,3,0,7,0.02
2013-9-12,79.2,63.9,54.6,65.0,58.8,53.0,97,85,54,30.00,29.88,5,1,8,0.00
2013-9-13,83.4,63.4,53.1,62.0,56.3,51.0,98,80,45,29.92,29.75,6,1,9,0.00
2013-9-14,83.1,61.6,51.0,62.0,55.0,50.0,98,82,47,29.83,29.72,5,0,7,0.01
2013-9-15,78.1,61.4,50.7,60.0,55.1,49.0,98,82,53,29.87,29.78,6,1,11,0.00
2013-9-16,85.0,64.8,52.3,63.0,55.9,51.0,100,77,40,29.91,29.76,7,0,9,0.00
2013-9-17,78.3,62.9,50.4,56.0,52.4,49.0,97,71,45,29.90,29.81,7,1,11,0.00
2013-9-18,83.8,64.2,50.9,54.0,49.7,43.0,91,65,25,29.93,29.81,8,1,10,0.00
2013-9-19,85.7,64.2,50.0,55.0,49.2,44.0,92,64,23,29.87,29.75,8,1,10,0.00
2013-9-20,73.7,59.0,46.4,62.0,54.6,45.0,97,86,61,29.84,29.77,8,1,14,0.10
2013-9-21,67.5,59.8,52.2,61.0,56.7,51.0,98,90,69,29.91,29.79,7,1,13,0.32
2013-9-22,73.1,59.5,48.4,59.0,52.5,48.0,99,80,54,30.02,29.91,6,1,11,0.01
2013-9-23,82.3,63.5,51.2,63.0,55.9,50.0,97,79,50,30.03,29.92,3,0,11,0.00
2013-9-24,80.0,63.2,54.5,56.0,52.2,48.0,95,70,40,29.99,29.90,8,2,17,0.00
2013-9-25,71.9,58.9,48.2,50.0,46.5,42.0,93,66,38,29.96,29.84,7,2,15,0.00
2013-9-26,75.7,60.3,44.1,47.0,42.5,39.0,90,56,31,30.02,29.88,7,1,9,0.00
2013-9-27,80.6,60.5,46.9,47.0,42.5,34.0,88,57,21,30.11,30.02,4,0,13,0.00
2013-9-28,79.5,60.8,47.0,55.0,47.5,38.0,89,67,24,30.10,30.01,5,1,10,0.00
2013-9-29,67.2,59.8,54.1,62.0,58.0,53.0,98,93,83,30.10,30.05,5,1,11,0.05
2013-9-30,70.3,61.7,51.0,65.0,59.2,48.0,98,92,77,30.06,29.98,6,1,13,0.04
2013-10-1,81.6,59.4,46.4,56.0,49.3,45.0,98,74,31,30.02,29.91,3,0,7,0.00
2013-10-2,78.8,60.1,48.0,53.0,46.8,40.0,96,67,30,30.03,29.94,7,1,9,0.00
2013-10-3,79.6,62.5,50.8,43.0,35.5,23.0,72,41,12,30.10,29.98,8,1,10,0.00
2013-10-4,84.3,66.6,54.4,38.0,32.0,26.0,46,30,12,30.09,30.02,2,0,7,0.00
2013-10-5,86.2,65.5,49.4,41.0,34.3,29.0,59,34,13,30.19,30.09,5,0,7,0.00
2013-10-6,84.5,61.3,44.5,44.0,38.1,33.0,76,47,16,30.13,30.01,5,0,7,0.00
2013-10-7,82.1,61.7,46.4,49.0,41.5,36.0,79,52,22,30.01,29.86,5,0,9,0.00
2013-10-8,77.0,58.7,46.9,51.0,46.3,44.0,94,67,34,29.92,29.71,4,0,8,0.00
2013-10-9,73.5,58.1,46.0,46.0,43.6,42.0,86,62,33,29.77,29.63,6,1,12,0.00
2013-10-10,69.5,55.2,46.3,52.0,45.6,42.0,94,72,44,30.01,29.76,6,1,10,0.00
2013-10-11,65.1,51.1,42.9,51.0,46.4,41.0,97,85,59,30.10,29.98,7,1,8,0.00
2013-10-12,71.8,54.6,40.6,53.0,46.0,40.0,98,76,42,30.02,29.89,5,1,12,0.00
2013-10-13,74.0,56.5,45.4,51.0,45.8,42.0,96,71,38,30.07,29.94,5,0,12,0.00
2013-10-14,80.8,57.7,44.1,47.0,42.4,39.0,90,63,25,30.13,30.01,5,0,8,0.00
2013-10-15,84.2,59.2,45.1,42.0,38.3,31.0,80,52,15,30.05,29.96,6,0,9,0.00
2013-10-16,85.6,59.6,45.3,41.0,37.2,32.0,73,49,15,30.10,30.01,3,0,7,0.00
2013-10-17,83.2,59.0,43.8,45.0,39.0,35.0,77,53,20,30.10,29.96,6,0,9,0.00
2013-10-18,77.3,56.4,42.2,50.0,43.6,40.0,92,66,33,30.06,29.99,6,0,8,0.00
2013-10-19,84.7,58.5,42.7,50.0,43.6,40.0,93,64,22,30.09,30.00,4,0,6,0.00
2013-10-20,75.4,54.1,40.9,52.0,44.8,39.0,94,74,39,30.03,29.91,5,1,8,0.00
2013-10-21,71.1,51.4,40.2,55.0,46.1,39.0,98,84,50,30.02,29.92,3,1,9,0.00
2013-10-22,76.4,51.8,38.4,54.0,45.4,37.0,98,82,44,30.04,29.93,5,1,9,0.00
2013-10-23,70.7,49.9,39.5,54.0,45.1,38.0,98,85,54,30.00,29.91,3,0,6,0.00
2013-10-24,64.8,50.8,43.8,51.0,46.4,43.0,98,86,59,30.12,29.99,4,0,7,0.00
2013-10-25,71.1,52.6,41.6,54.0,47.1,41.0,98,84,50,30.19,30.10,4,0,6,0.00
2013-10-26,81.0,56.0,44.0,53.0,46.4,43.0,98,75,33,30.16,30.03,3,0,6,0.00
2013-10-27,61.6,49.2,42.0,51.0,44.9,41.0,98,86,64,30.04,29.65,9,1,15,0.00
2013-10-28,64.2,51.9,42.4,46.0,43.0,41.0,96,74,45,29.83,29.68,6,1,12,0.00
2013-10-29,63.3,51.6,43.6,48.0,45.5,42.0,97,81,54,30.07,29.84,6,0,8,0.00
2013-10-30,66.1,49.9,40.0,50.0,43.3,39.0,98,81,51,30.17,30.06,5,0,11,0.00
2013-10-31,73.8,53.4,42.1,49.0,44.0,41.0,95,74,40,30.19,30.08,6,0,9,0.00
2013-11-1,77.2,58.1,46.1,49.0,45.5,42.0,89,66,32,30.16,30.02,2,0,6,0.00
2013-11-2,72.4,56.9,44.0,54.0,46.1,37.0,94,69,48,30.03,29.90,5,1,11,0.00
2013-11-3,65.7,51.1,40.1,39.0,34.8,28.0,83,58,25,30.07,29.95,6,0,11,0.02
2013-11-4,72.3,52.7,37.3,38.0,34.4,28.0,91,56,20,30.12,29.94,3,0,9,0.00
2013-11-5,75.1,55.8,42.2,46.0,40.1,36.0,83,60,26,30.22,30.10,7,1,9,0.00
2013-11-6,74.0,57.2,47.0,50.0,44.4,39.0,96,66,32,30.27,30.17,3,0,6,0.00
2013-11-7,73.7,57.3,47.9,50.0,44.1,40.0,96,65,32,30.18,30.07,5,0,11,0.00
2013-11-8,73.6,53.9,43.0,55.0,46.4,39.0,98,79,38,30.09,29.96,5,1,10,0.00
2013-11-9,73.2,52.4,40.2,50.0,45.1,39.0,98,80,39,30.05,29.97,5,1,8,0.00
2013-11-10,63.8,51.4,44.3,52.0,47.5,43.0,97,87,63,30.13,30.03,5,1,10,0.00
2013-11-11,66.0,53.3,46.0,51.0,47.7,45.0,97,83,53,30.18,30.09,3,0,5,0.00
2013-11-12,71.1,57.7,50.4,53.0,49.1,46.0,92,74,48,30.29,30.17,3,0,7,0.00
2013-11-13,77.0,57.3,47.2,55.0,49.4,46.0,96,78,44,30.27,30.10,3,0,7,0.00
2013-11-14,63.0,50.9,40.7,55.0,45.3,34.0,98,83,52,30.12,29.90,6,0,7,0.00
2013-11-15,67.8,52.2,42.2,43.0,39.9,34.0,86,65,38,29.90,29.73,7,1,10,0.00
2013-11-16,69.0,51.5,40.5,49.0,42.9,36.0,94,75,43,29.93,29.78,5,1,13,0.00
2013-11-17,62.0,48.8,41.3,49.0,45.0,40.0,98,87,60,30.09,29.93,3,0,6,0.00
2013-11-18,55.6,47.5,39.1,49.0,44.9,38.0,98,91,76,30.17,30.09,6,0,8,0.02
2013-11-19,54.9,52.0,48.6,55.0,51.5,48.0,99,98,95,30.11,29.93,5,0,12,1.25
2013-11-20,56.8,53.6,47.7,56.0,53.0,47.0,99,97,92,29.93,29.86,3,0,7,0.29
2013-11-21,63.9,54.0,48.3,49.0,34.7,18.0,99,58,20,30.01,29.91,5,1,9,0.01
2013-11-22,74.0,60.6,49.6,22.0,16.3,8.0,31,19,9,30.03,29.92,6,1,8,0.00
2013-11-23,68.0,55.3,42.6,35.0,25.3,15.0,60,33,17,30.11,29.96,5,1,8,0.00
2013-11-24,64.4,47.1,36.0,46.0,37.0,29.0,93,70,40,30.27,30.11,6,0,8,0.00
2013-11-25,62.9,47.7,37.0,45.0,41.0,36.0,97,80,47,30.35,30.26,7,0,7,0.00
2013-11-26,61.1,48.2,39.4,47.0,41.2,38.0,95,78,52,30.29,30.06,1,0,3,0.00
2013-11-27,65.1,50.2,39.3,47.0,42.2,38.0,95,76,48,30.05,29.85,2,0,4,0.00
2013-11-28,70.8,52.0,41.6,48.0,42.3,40.0,95,72,39,30.09,29.89,4,0,6,0.00
2013-11-29,69.1,52.1,41.8,49.0,43.1,39.0,89,73,42,30.23,30.08,4,0,4,0.00
2013-11-30,69.4,52.4,43.3,51.0,44.9,41.0,93,77,45,30.29,30.20,4,0,7,0.00
2013-12-1,70.5,53.9,43.9,52.0,46.1,42.0,95,77,45,30.35,30.23,3,0,7,0.00
2013-12-2,66.6,52.9,43.7,53.0,48.0,43.0,97,85,54,30.23,29.97,5,1,12,0.00
2013-12-3,57.9,48.3,37.0,50.0,34.0,27.0,92,60,31,29.96,29.85,8,2,13,0.00
2013-12-4,53.0,39.2,31.0,32.0,29.2,25.0,90,70,35,30.11,29.96,3,0,6,0.00
2013-12-5,50.6,35.8,26.7,33.0,28.5,25.0,95,77,44,30.18,30.10,5,0,7,0.00
2013-12-6,47.4,36.9,26.7,46.0,32.8,25.0,97,86,58,30.20,29.91,4,0,20,0.56
2013-12-7,47.1,38.6,29.2,42.0,30.1,24.0,95,73,43,30.27,29.94,10,2,17,0.01
2013-12-8,48.0,34.1,26.5,28.0,24.7,22.0,93,71,39,30.34,30.25,3,0,4,0.00
2013-12-9,51.9,36.1,26.2,35.0,27.0,22.0,87,72,36,30.44,30.32,5,0,5,0.00
2013-12-10,53.1,37.4,26.5,37.0,29.2,24.0,93,75,36,30.44,30.23,2,0,4,0.00
2013-12-11,56.6,40.8,31.0,38.0,32.2,28.0,91,73,45,30.27,30.20,3,0,4,0.00
2013-12-12,61.1,43.2,33.0,37.0,33.1,30.0,91,71,36,30.29,30.18,2,0,5,0.00
2013-12-13,63.6,45.1,32.7,41.0,36.4,31.0,93,74,40,30.35,30.24,2,0,6,0.00
2013-12-14,65.6,46.7,36.0,43.0,39.5,35.0,100,78,42,30.42,30.32,3,0,5,0.00
2013-12-15,61.1,45.7,34.6,44.0,39.0,33.0,97,79,50,30.39,30.26,1,0,3,0.00
2013-12-16,66.1,48.3,37.9,43.0,38.8,35.0,92,72,38,30.26,30.14,3,0,6,0.00
2013-12-17,62.9,48.8,40.8,44.0,39.6,37.0,86,72,47,30.20,30.04,2,0,3,0.00
2013-12-18,59.6,48.6,40.4,48.0,41.6,36.0,92,77,56,30.04,29.77,7,1,13,0.00
2013-12-19,64.3,50.3,42.8,37.0,30.9,20.0,75,50,27,29.96,29.74,8,1,13,0.00
2013-12-20,66.9,48.2,36.0,35.0,28.5,23.0,69,50,19,30.02,29.93,2,0,6,0.00
2013-12-21,66.0,51.7,44.6,50.0,44.9,35.0,94,79,50,30.09,29.97,5,0,5,0.00
2013-12-22,67.8,49.9,42.1,50.0,43.2,40.0,95,79,50,30.30,30.09,5,0,7,0.00
2013-12-23,67.1,50.1,39.5,47.0,41.8,38.0,95,75,44,30.41,30.30,3,0,5,0.00
2013-12-24,70.6,51.9,41.7,49.0,43.8,39.0,93,76,44,30.36,30.21,3,0,5,0.00
2013-12-25,65.3,48.8,37.6,44.0,40.3,37.0,97,75,42,30.32,30.21,2,0,3,0.00
2013-12-26,65.0,48.8,38.0,43.0,36.4,31.0,86,64,35,30.27,30.18,0,0,0,0.00
2013-12-27,56.2,46.2,38.6,43.0,36.1,32.0,85,69,49,30.25,30.14,0,0,0,0.00
2013-12-28,71.7,50.4,35.9,46.0,34.8,24.0,90,61,29,30.17,30.04,0,0,0,0.00
2013-12-29,66.4,50.7,41.0,36.0,29.8,23.0,67,46,26,30.19,30.09,0,0,0,0.00
2013-12-30,62.1,47.4,37.9,43.0,35.0,29.0,95,64,40,30.26,30.18,0,0,0,0.00
2013-12-31,62.0,46.4,38.0,46.0,41.2,37.0,96,84,49,30.29,30.17,5,0,6,0.00
2014-1-1,66.0,47.8,36.6,44.0,38.9,33.0,93,74,37,30.22,30.14,3,0,6,0.00
2014-1-2,64.7,50.5,38.7,44.0,38.9,34.0,85,66,43,30.20,30.07,2,0,4,0.00